sensor_id;sensor_type;location;lat;lon;timestamp;P1;durP1;ratioP1;P2;durP2;ratioP2
7525;SDS011;3804;50.860;6.208;2022-11-23T00:00:05;6.23;;;1.57;;
7525;SDS011;3804;50.860;6.208;2022-11-23T00:02:32;5.93;;;1.67;;
7525;SDS011;3804;50.860;6.208;2022-11-23T00:04:58;4.80;;;1.70;;
7525;SDS011;3804;50.860;6.208;2022-11-23T00:07:25;5.87;;;1.70;;
7525;SDS011;3804;50.860;6.208;2022-11-23T00:09:52;5.47;;;1.60;;
7525;SDS011;3804;50.860;6.208;2022-11-23T00:12:19;6.53;;;1.83;;
7525;SDS011;3804;50.860;6.208;2022-11-23T00:14:46;4.27;;;1.80;;
7525;SDS011;3804;50.860;6.208;2022-11-23T00:17:12;3.77;;;1.53;;
7525;SDS011;3804;50.860;6.208;2022-11-23T00:19:39;5.23;;;2.07;;
7525;SDS011;3804;50.860;6.208;2022-11-23T00:22:06;4.43;;;1.67;;
7525;SDS011;3804;50.860;6.208;2022-11-23T00:24:32;6.73;;;1.23;;
7525;SDS011;3804;50.860;6.208;2022-11-23T00:26:59;4.60;;;1.60;;
7525;SDS011;3804;50.860;6.208;2022-11-23T00:29:26;5.60;;;1.93;;
7525;SDS011;3804;50.860;6.208;2022-11-23T00:31:53;5.47;;;1.53;;
7525;SDS011;3804;50.860;6.208;2022-11-23T00:34:20;6.07;;;1.53;;
7525;SDS011;3804;50.860;6.208;2022-11-23T00:36:46;6.27;;;1.50;;
7525;SDS011;3804;50.860;6.208;2022-11-23T00:39:13;5.97;;;1.80;;
7525;SDS011;3804;50.860;6.208;2022-11-23T00:41:41;4.37;;;1.90;;
7525;SDS011;3804;50.860;6.208;2022-11-23T00:44:08;4.77;;;1.57;;
7525;SDS011;3804;50.860;6.208;2022-11-23T00:46:35;6.37;;;1.93;;
7525;SDS011;3804;50.860;6.208;2022-11-23T00:49:03;8.50;;;2.37;;
7525;SDS011;3804;50.860;6.208;2022-11-23T00:51:31;7.67;;;1.90;;
7525;SDS011;3804;50.860;6.208;2022-11-23T00:53:58;10.13;;;2.27;;
7525;SDS011;3804;50.860;6.208;2022-11-23T00:56:26;7.27;;;1.90;;
7525;SDS011;3804;50.860;6.208;2022-11-23T00:58:54;6.60;;;1.80;;
7525;SDS011;3804;50.860;6.208;2022-11-23T01:01:22;7.60;;;2.30;;
7525;SDS011;3804;50.860;6.208;2022-11-23T01:03:50;8.57;;;1.97;;
7525;SDS011;3804;50.860;6.208;2022-11-23T01:06:19;8.93;;;2.00;;
7525;SDS011;3804;50.860;6.208;2022-11-23T01:08:47;5.83;;;2.10;;
7525;SDS011;3804;50.860;6.208;2022-11-23T01:11:14;3.83;;;1.60;;
7525;SDS011;3804;50.860;6.208;2022-11-23T01:13:41;6.53;;;1.90;;
7525;SDS011;3804;50.860;6.208;2022-11-23T01:16:14;8.70;;;1.90;;
7525;SDS011;3804;50.860;6.208;2022-11-23T01:18:50;7.40;;;2.57;;
7525;SDS011;3804;50.860;6.208;2022-11-23T01:21:17;6.97;;;2.20;;
7525;SDS011;3804;50.860;6.208;2022-11-23T01:23:44;7.87;;;2.07;;
7525;SDS011;3804;50.860;6.208;2022-11-23T01:26:10;5.57;;;1.83;;
7525;SDS011;3804;50.860;6.208;2022-11-23T01:28:38;5.43;;;1.97;;
7525;SDS011;3804;50.860;6.208;2022-11-23T01:31:09;5.17;;;2.37;;
7525;SDS011;3804;50.860;6.208;2022-11-23T01:33:36;9.37;;;2.43;;
7525;SDS011;3804;50.860;6.208;2022-11-23T01:36:13;6.10;;;2.50;;
7525;SDS011;3804;50.860;6.208;2022-11-23T01:38:42;6.60;;;1.87;;
7525;SDS011;3804;50.860;6.208;2022-11-23T01:41:13;7.43;;;1.90;;
7525;SDS011;3804;50.860;6.208;2022-11-23T01:43:40;10.67;;;2.13;;
7525;SDS011;3804;50.860;6.208;2022-11-23T01:46:07;4.47;;;1.90;;
7525;SDS011;3804;50.860;6.208;2022-11-23T01:51:30;7.43;;;2.10;;
7525;SDS011;3804;50.860;6.208;2022-11-23T01:53:54;5.90;;;2.03;;
7525;SDS011;3804;50.860;6.208;2022-11-23T01:56:24;12.63;;;2.97;;
7525;SDS011;3804;50.860;6.208;2022-11-23T01:58:53;7.13;;;2.23;;
7525;SDS011;3804;50.860;6.208;2022-11-23T02:01:20;7.90;;;2.20;;
7525;SDS011;3804;50.860;6.208;2022-11-23T02:03:47;9.33;;;2.00;;
7525;SDS011;3804;50.860;6.208;2022-11-23T02:06:16;8.90;;;1.87;;
7525;SDS011;3804;50.860;6.208;2022-11-23T02:08:43;9.27;;;2.40;;
7525;SDS011;3804;50.860;6.208;2022-11-23T02:11:14;7.30;;;2.00;;
7525;SDS011;3804;50.860;6.208;2022-11-23T02:13:42;6.23;;;2.10;;
7525;SDS011;3804;50.860;6.208;2022-11-23T02:16:10;6.77;;;1.83;;
7525;SDS011;3804;50.860;6.208;2022-11-23T02:18:37;6.03;;;2.10;;
7525;SDS011;3804;50.860;6.208;2022-11-23T02:21:05;7.57;;;2.60;;
7525;SDS011;3804;50.860;6.208;2022-11-23T02:26:17;6.13;;;1.97;;
7525;SDS011;3804;50.860;6.208;2022-11-23T02:28:46;10.70;;;2.30;;
7525;SDS011;3804;50.860;6.208;2022-11-23T02:31:13;11.57;;;3.03;;
7525;SDS011;3804;50.860;6.208;2022-11-23T02:33:40;8.43;;;1.97;;
7525;SDS011;3804;50.860;6.208;2022-11-23T02:38:52;13.50;;;2.30;;
7525;SDS011;3804;50.860;6.208;2022-11-23T02:41:20;8.43;;;3.30;;
7525;SDS011;3804;50.860;6.208;2022-11-23T02:43:47;7.43;;;2.47;;
7525;SDS011;3804;50.860;6.208;2022-11-23T02:46:18;9.70;;;3.17;;
7525;SDS011;3804;50.860;6.208;2022-11-23T02:48:48;12.23;;;2.57;;
7525;SDS011;3804;50.860;6.208;2022-11-23T02:51:14;10.07;;;2.37;;
7525;SDS011;3804;50.860;6.208;2022-11-23T02:53:41;6.70;;;2.17;;
7525;SDS011;3804;50.860;6.208;2022-11-23T02:56:09;6.80;;;2.03;;
7525;SDS011;3804;50.860;6.208;2022-11-23T02:58:35;7.37;;;2.27;;
7525;SDS011;3804;50.860;6.208;2022-11-23T03:01:05;7.90;;;1.73;;
7525;SDS011;3804;50.860;6.208;2022-11-23T03:03:32;11.23;;;2.43;;
7525;SDS011;3804;50.860;6.208;2022-11-23T03:06:02;9.67;;;2.93;;
7525;SDS011;3804;50.860;6.208;2022-11-23T03:08:31;12.27;;;2.80;;
7525;SDS011;3804;50.860;6.208;2022-11-23T03:10:59;5.83;;;1.87;;
7525;SDS011;3804;50.860;6.208;2022-11-23T03:13:27;9.20;;;2.17;;
7525;SDS011;3804;50.860;6.208;2022-11-23T03:15:55;4.37;;;1.47;;
7525;SDS011;3804;50.860;6.208;2022-11-23T03:18:25;10.57;;;2.63;;
7525;SDS011;3804;50.860;6.208;2022-11-23T03:20:52;8.27;;;2.03;;
7525;SDS011;3804;50.860;6.208;2022-11-23T03:23:19;5.80;;;1.93;;
7525;SDS011;3804;50.860;6.208;2022-11-23T03:25:53;5.67;;;1.87;;
7525;SDS011;3804;50.860;6.208;2022-11-23T03:28:20;8.77;;;2.47;;
7525;SDS011;3804;50.860;6.208;2022-11-23T03:30:47;10.23;;;2.03;;
7525;SDS011;3804;50.860;6.208;2022-11-23T03:33:14;4.70;;;1.50;;
7525;SDS011;3804;50.860;6.208;2022-11-23T03:35:41;5.80;;;1.73;;
7525;SDS011;3804;50.860;6.208;2022-11-23T03:38:17;9.87;;;1.97;;
7525;SDS011;3804;50.860;6.208;2022-11-23T03:40:44;5.53;;;1.87;;
7525;SDS011;3804;50.860;6.208;2022-11-23T03:43:21;5.67;;;1.73;;
7525;SDS011;3804;50.860;6.208;2022-11-23T03:45:48;7.77;;;2.30;;
7525;SDS011;3804;50.860;6.208;2022-11-23T03:48:15;5.80;;;1.70;;
7525;SDS011;3804;50.860;6.208;2022-11-23T03:50:42;3.90;;;1.73;;
7525;SDS011;3804;50.860;6.208;2022-11-23T03:53:10;6.17;;;2.53;;
7525;SDS011;3804;50.860;6.208;2022-11-23T03:55:36;3.67;;;1.50;;
7525;SDS011;3804;50.860;6.208;2022-11-23T03:58:03;7.30;;;1.80;;
7525;SDS011;3804;50.860;6.208;2022-11-23T04:00:33;5.47;;;1.83;;
7525;SDS011;3804;50.860;6.208;2022-11-23T04:03:00;8.27;;;1.73;;
7525;SDS011;3804;50.860;6.208;2022-11-23T04:06:02;6.50;;;2.07;;
7525;SDS011;3804;50.860;6.208;2022-11-23T04:08:53;7.83;;;1.90;;
7525;SDS011;3804;50.860;6.208;2022-11-23T04:11:46;3.63;;;1.60;;
7525;SDS011;3804;50.860;6.208;2022-11-23T04:14:12;5.10;;;2.07;;
7525;SDS011;3804;50.860;6.208;2022-11-23T04:16:39;9.27;;;2.50;;
7525;SDS011;3804;50.860;6.208;2022-11-23T04:19:06;8.37;;;2.50;;
7525;SDS011;3804;50.860;6.208;2022-11-23T04:21:32;5.97;;;2.00;;
7525;SDS011;3804;50.860;6.208;2022-11-23T04:23:59;12.00;;;2.53;;
7525;SDS011;3804;50.860;6.208;2022-11-23T04:26:29;6.60;;;2.00;;
7525;SDS011;3804;50.860;6.208;2022-11-23T04:28:56;10.93;;;2.10;;
7525;SDS011;3804;50.860;6.208;2022-11-23T04:31:23;9.13;;;2.73;;
7525;SDS011;3804;50.860;6.208;2022-11-23T04:34:02;6.20;;;2.00;;
7525;SDS011;3804;50.860;6.208;2022-11-23T04:36:29;9.83;;;2.30;;
7525;SDS011;3804;50.860;6.208;2022-11-23T04:38:56;10.17;;;2.43;;
7525;SDS011;3804;50.860;6.208;2022-11-23T04:41:32;4.73;;;1.87;;
7525;SDS011;3804;50.860;6.208;2022-11-23T04:44:00;9.20;;;2.43;;
7525;SDS011;3804;50.860;6.208;2022-11-23T04:46:27;8.73;;;1.90;;
7525;SDS011;3804;50.860;6.208;2022-11-23T04:48:58;7.83;;;1.93;;
7525;SDS011;3804;50.860;6.208;2022-11-23T04:51:25;11.43;;;2.00;;
7525;SDS011;3804;50.860;6.208;2022-11-23T04:53:53;11.77;;;2.50;;
7525;SDS011;3804;50.860;6.208;2022-11-23T04:56:19;14.50;;;2.40;;
7525;SDS011;3804;50.860;6.208;2022-11-23T04:58:47;10.60;;;2.17;;
7525;SDS011;3804;50.860;6.208;2022-11-23T05:01:13;8.67;;;1.73;;
7525;SDS011;3804;50.860;6.208;2022-11-23T05:04:03;8.97;;;2.53;;
7525;SDS011;3804;50.860;6.208;2022-11-23T05:06:29;11.87;;;2.37;;
7525;SDS011;3804;50.860;6.208;2022-11-23T05:08:57;7.90;;;2.37;;
7525;SDS011;3804;50.860;6.208;2022-11-23T05:11:56;7.27;;;2.07;;
7525;SDS011;3804;50.860;6.208;2022-11-23T05:14:23;9.00;;;2.33;;
7525;SDS011;3804;50.860;6.208;2022-11-23T05:16:51;13.67;;;4.10;;
7525;SDS011;3804;50.860;6.208;2022-11-23T05:19:18;8.73;;;2.10;;
7525;SDS011;3804;50.860;6.208;2022-11-23T05:21:44;12.17;;;2.40;;
7525;SDS011;3804;50.860;6.208;2022-11-23T05:24:13;9.50;;;2.60;;
7525;SDS011;3804;50.860;6.208;2022-11-23T05:26:48;10.57;;;2.33;;
7525;SDS011;3804;50.860;6.208;2022-11-23T05:29:21;11.83;;;2.20;;
7525;SDS011;3804;50.860;6.208;2022-11-23T05:31:48;8.43;;;2.07;;
7525;SDS011;3804;50.860;6.208;2022-11-23T05:34:15;7.27;;;2.10;;
7525;SDS011;3804;50.860;6.208;2022-11-23T05:36:45;7.97;;;2.27;;
7525;SDS011;3804;50.860;6.208;2022-11-23T05:39:12;7.07;;;2.13;;
7525;SDS011;3804;50.860;6.208;2022-11-23T05:41:39;10.97;;;2.70;;
7525;SDS011;3804;50.860;6.208;2022-11-23T05:44:19;7.73;;;2.23;;
7525;SDS011;3804;50.860;6.208;2022-11-23T05:46:46;16.37;;;3.20;;
7525;SDS011;3804;50.860;6.208;2022-11-23T05:49:13;13.50;;;3.20;;
7525;SDS011;3804;50.860;6.208;2022-11-23T05:51:41;13.03;;;3.23;;
7525;SDS011;3804;50.860;6.208;2022-11-23T05:54:08;12.60;;;2.77;;
7525;SDS011;3804;50.860;6.208;2022-11-23T05:56:41;7.20;;;2.33;;
7525;SDS011;3804;50.860;6.208;2022-11-23T05:59:14;6.10;;;2.13;;
7525;SDS011;3804;50.860;6.208;2022-11-23T06:01:44;8.23;;;1.80;;
7525;SDS011;3804;50.860;6.208;2022-11-23T06:04:18;9.47;;;1.97;;
7525;SDS011;3804;50.860;6.208;2022-11-23T06:06:45;8.57;;;2.10;;
7525;SDS011;3804;50.860;6.208;2022-11-23T06:09:11;6.67;;;1.53;;
7525;SDS011;3804;50.860;6.208;2022-11-23T06:11:42;5.87;;;1.77;;
7525;SDS011;3804;50.860;6.208;2022-11-23T06:14:13;7.03;;;1.77;;
7525;SDS011;3804;50.860;6.208;2022-11-23T06:16:43;6.63;;;2.00;;
7525;SDS011;3804;50.860;6.208;2022-11-23T06:19:36;5.17;;;2.23;;
7525;SDS011;3804;50.860;6.208;2022-11-23T06:22:04;3.73;;;1.60;;
7525;SDS011;3804;50.860;6.208;2022-11-23T06:24:36;7.23;;;2.30;;
7525;SDS011;3804;50.860;6.208;2022-11-23T06:27:41;11.43;;;2.40;;
7525;SDS011;3804;50.860;6.208;2022-11-23T06:30:19;14.10;;;3.57;;
7525;SDS011;3804;50.860;6.208;2022-11-23T06:32:46;11.27;;;7.17;;
7525;SDS011;3804;50.860;6.208;2022-11-23T06:35:14;7.10;;;3.83;;
7525;SDS011;3804;50.860;6.208;2022-11-23T06:37:42;11.00;;;4.60;;
7525;SDS011;3804;50.860;6.208;2022-11-23T06:40:11;7.10;;;3.10;;
7525;SDS011;3804;50.860;6.208;2022-11-23T06:42:38;9.03;;;2.40;;
7525;SDS011;3804;50.860;6.208;2022-11-23T06:45:15;6.23;;;1.97;;
7525;SDS011;3804;50.860;6.208;2022-11-23T06:47:43;6.60;;;2.80;;
7525;SDS011;3804;50.860;6.208;2022-11-23T06:50:09;8.83;;;1.70;;
7525;SDS011;3804;50.860;6.208;2022-11-23T06:52:37;5.90;;;3.47;;
7525;SDS011;3804;50.860;6.208;2022-11-23T06:55:04;6.77;;;1.80;;
7525;SDS011;3804;50.860;6.208;2022-11-23T06:57:31;8.83;;;2.10;;
7525;SDS011;3804;50.860;6.208;2022-11-23T06:59:58;5.77;;;2.00;;
7525;SDS011;3804;50.860;6.208;2022-11-23T07:02:31;9.47;;;3.70;;
7525;SDS011;3804;50.860;6.208;2022-11-23T07:04:58;4.10;;;2.27;;
7525;SDS011;3804;50.860;6.208;2022-11-23T07:07:27;8.90;;;2.87;;
7525;SDS011;3804;50.860;6.208;2022-11-23T07:10:02;7.97;;;2.50;;
7525;SDS011;3804;50.860;6.208;2022-11-23T07:12:48;8.20;;;2.07;;
7525;SDS011;3804;50.860;6.208;2022-11-23T07:15:18;7.20;;;2.13;;
7525;SDS011;3804;50.860;6.208;2022-11-23T07:17:45;7.20;;;3.60;;
7525;SDS011;3804;50.860;6.208;2022-11-23T07:20:12;12.20;;;3.70;;
7525;SDS011;3804;50.860;6.208;2022-11-23T07:22:39;7.93;;;3.10;;
7525;SDS011;3804;50.860;6.208;2022-11-23T07:25:06;12.13;;;3.17;;
7525;SDS011;3804;50.860;6.208;2022-11-23T07:27:33;12.60;;;2.83;;
7525;SDS011;3804;50.860;6.208;2022-11-23T07:30:01;12.60;;;3.10;;
7525;SDS011;3804;50.860;6.208;2022-11-23T07:32:28;9.67;;;2.67;;
7525;SDS011;3804;50.860;6.208;2022-11-23T07:34:55;4.87;;;2.47;;
7525;SDS011;3804;50.860;6.208;2022-11-23T07:37:24;8.17;;;2.67;;
7525;SDS011;3804;50.860;6.208;2022-11-23T07:39:50;9.67;;;3.93;;
7525;SDS011;3804;50.860;6.208;2022-11-23T07:42:26;7.83;;;2.40;;
7525;SDS011;3804;50.860;6.208;2022-11-23T07:45:08;8.30;;;2.27;;
7525;SDS011;3804;50.860;6.208;2022-11-23T07:47:37;9.60;;;2.50;;
7525;SDS011;3804;50.860;6.208;2022-11-23T07:50:05;15.23;;;3.20;;
7525;SDS011;3804;50.860;6.208;2022-11-23T07:52:32;7.93;;;2.57;;
7525;SDS011;3804;50.860;6.208;2022-11-23T07:55:00;6.67;;;2.27;;
7525;SDS011;3804;50.860;6.208;2022-11-23T07:57:27;7.77;;;2.07;;
7525;SDS011;3804;50.860;6.208;2022-11-23T07:59:54;7.77;;;2.17;;
7525;SDS011;3804;50.860;6.208;2022-11-23T08:02:20;8.53;;;2.20;;
7525;SDS011;3804;50.860;6.208;2022-11-23T08:04:47;11.00;;;2.50;;
7525;SDS011;3804;50.860;6.208;2022-11-23T08:07:14;9.90;;;2.43;;
7525;SDS011;3804;50.860;6.208;2022-11-23T08:09:40;10.43;;;2.07;;
7525;SDS011;3804;50.860;6.208;2022-11-23T08:12:08;7.40;;;2.30;;
7525;SDS011;3804;50.860;6.208;2022-11-23T08:14:34;11.17;;;2.67;;
7525;SDS011;3804;50.860;6.208;2022-11-23T08:17:01;6.53;;;2.20;;
7525;SDS011;3804;50.860;6.208;2022-11-23T08:19:28;8.97;;;2.67;;
7525;SDS011;3804;50.860;6.208;2022-11-23T08:21:55;12.97;;;2.97;;
7525;SDS011;3804;50.860;6.208;2022-11-23T08:24:22;10.83;;;2.70;;
7525;SDS011;3804;50.860;6.208;2022-11-23T08:26:48;9.03;;;2.03;;
7525;SDS011;3804;50.860;6.208;2022-11-23T08:29:15;5.53;;;1.97;;
7525;SDS011;3804;50.860;6.208;2022-11-23T08:31:42;10.63;;;2.80;;
7525;SDS011;3804;50.860;6.208;2022-11-23T08:34:09;7.30;;;2.47;;
7525;SDS011;3804;50.860;6.208;2022-11-23T08:36:36;9.10;;;2.33;;
7525;SDS011;3804;50.860;6.208;2022-11-23T08:39:02;10.63;;;2.70;;
7525;SDS011;3804;50.860;6.208;2022-11-23T08:41:29;9.83;;;2.17;;
7525;SDS011;3804;50.860;6.208;2022-11-23T08:43:56;8.37;;;1.83;;
7525;SDS011;3804;50.860;6.208;2022-11-23T08:46:22;7.23;;;1.90;;
7525;SDS011;3804;50.860;6.208;2022-11-23T08:48:50;7.30;;;1.80;;
7525;SDS011;3804;50.860;6.208;2022-11-23T08:51:17;6.80;;;1.90;;
7525;SDS011;3804;50.860;6.208;2022-11-23T08:53:48;4.43;;;1.67;;
7525;SDS011;3804;50.860;6.208;2022-11-23T08:56:15;7.93;;;1.90;;
7525;SDS011;3804;50.860;6.208;2022-11-23T08:58:42;5.60;;;1.70;;
7525;SDS011;3804;50.860;6.208;2022-11-23T09:01:12;6.10;;;1.60;;
7525;SDS011;3804;50.860;6.208;2022-11-23T09:03:40;5.00;;;1.33;;
7525;SDS011;3804;50.860;6.208;2022-11-23T09:06:07;9.33;;;1.63;;
7525;SDS011;3804;50.860;6.208;2022-11-23T09:08:34;3.33;;;1.53;;
7525;SDS011;3804;50.860;6.208;2022-11-23T09:11:02;6.10;;;1.97;;
7525;SDS011;3804;50.860;6.208;2022-11-23T09:13:29;8.33;;;1.83;;
7525;SDS011;3804;50.860;6.208;2022-11-23T09:15:59;5.60;;;1.90;;
7525;SDS011;3804;50.860;6.208;2022-11-23T09:18:26;7.07;;;2.10;;
7525;SDS011;3804;50.860;6.208;2022-11-23T09:20:53;8.43;;;1.50;;
7525;SDS011;3804;50.860;6.208;2022-11-23T09:23:20;2.97;;;1.37;;
7525;SDS011;3804;50.860;6.208;2022-11-23T09:25:46;8.27;;;1.83;;
7525;SDS011;3804;50.860;6.208;2022-11-23T09:28:15;6.97;;;1.83;;
7525;SDS011;3804;50.860;6.208;2022-11-23T09:30:45;4.43;;;1.47;;
7525;SDS011;3804;50.860;6.208;2022-11-23T09:33:13;4.47;;;1.67;;
7525;SDS011;3804;50.860;6.208;2022-11-23T09:35:39;10.90;;;1.70;;
7525;SDS011;3804;50.860;6.208;2022-11-23T09:38:09;6.60;;;1.73;;
7525;SDS011;3804;50.860;6.208;2022-11-23T09:40:37;4.53;;;1.50;;
7525;SDS011;3804;50.860;6.208;2022-11-23T09:45:47;5.00;;;1.23;;
7525;SDS011;3804;50.860;6.208;2022-11-23T09:48:25;3.67;;;1.40;;
7525;SDS011;3804;50.860;6.208;2022-11-23T09:51:03;2.97;;;1.27;;
7525;SDS011;3804;50.860;6.208;2022-11-23T09:55:57;5.83;;;1.67;;
7525;SDS011;3804;50.860;6.208;2022-11-23T09:58:25;5.23;;;1.40;;
7525;SDS011;3804;50.860;6.208;2022-11-23T10:00:54;6.83;;;1.70;;
7525;SDS011;3804;50.860;6.208;2022-11-23T10:03:24;5.20;;;1.27;;
7525;SDS011;3804;50.860;6.208;2022-11-23T10:06:34;3.30;;;1.20;;
7525;SDS011;3804;50.860;6.208;2022-11-23T10:26:35;6.33;;;1.73;;
7525;SDS011;3804;50.860;6.208;2022-11-23T10:31:39;4.07;;;1.10;;
7525;SDS011;3804;50.860;6.208;2022-11-23T10:34:12;3.73;;;1.20;;
7525;SDS011;3804;50.860;6.208;2022-11-23T10:36:39;5.53;;;1.27;;
7525;SDS011;3804;50.860;6.208;2022-11-23T10:39:15;5.30;;;1.67;;
7525;SDS011;3804;50.860;6.208;2022-11-23T10:41:43;4.57;;;1.30;;
7525;SDS011;3804;50.860;6.208;2022-11-23T10:44:17;5.37;;;1.07;;
7525;SDS011;3804;50.860;6.208;2022-11-23T10:46:47;3.70;;;1.10;;
7525;SDS011;3804;50.860;6.208;2022-11-23T10:49:15;2.57;;;1.23;;
7525;SDS011;3804;50.860;6.208;2022-11-23T10:51:58;4.10;;;1.20;;
7525;SDS011;3804;50.860;6.208;2022-11-23T10:56:56;3.03;;;1.37;;
7525;SDS011;3804;50.860;6.208;2022-11-23T10:59:27;2.20;;;1.27;;
7525;SDS011;3804;50.860;6.208;2022-11-23T11:02:07;4.20;;;1.33;;
7525;SDS011;3804;50.860;6.208;2022-11-23T11:04:36;2.77;;;0.90;;
7525;SDS011;3804;50.860;6.208;2022-11-23T11:07:23;4.83;;;1.40;;
7525;SDS011;3804;50.860;6.208;2022-11-23T11:09:54;3.80;;;1.70;;
7525;SDS011;3804;50.860;6.208;2022-11-23T11:12:22;4.03;;;1.17;;
7525;SDS011;3804;50.860;6.208;2022-11-23T11:17:37;3.40;;;1.63;;
7525;SDS011;3804;50.860;6.208;2022-11-23T11:22:50;3.37;;;1.10;;
7525;SDS011;3804;50.860;6.208;2022-11-23T11:27:52;3.30;;;1.37;;
7525;SDS011;3804;50.860;6.208;2022-11-23T11:30:20;2.43;;;1.03;;
7525;SDS011;3804;50.860;6.208;2022-11-23T11:32:50;3.60;;;1.10;;
7525;SDS011;3804;50.860;6.208;2022-11-23T11:35:24;2.67;;;0.73;;
7525;SDS011;3804;50.860;6.208;2022-11-23T11:37:53;3.07;;;1.40;;
7525;SDS011;3804;50.860;6.208;2022-11-23T11:40:35;3.90;;;1.20;;
7525;SDS011;3804;50.860;6.208;2022-11-23T11:45:33;4.80;;;1.20;;
7525;SDS011;3804;50.860;6.208;2022-11-23T11:50:32;8.77;;;1.30;;
7525;SDS011;3804;50.860;6.208;2022-11-23T11:53:02;1.90;;;1.13;;
7525;SDS011;3804;50.860;6.208;2022-11-23T11:55:34;1.70;;;1.17;;
7525;SDS011;3804;50.860;6.208;2022-11-23T11:58:09;3.03;;;1.13;;
7525;SDS011;3804;50.860;6.208;2022-11-23T12:00:37;2.73;;;1.20;;
7525;SDS011;3804;50.860;6.208;2022-11-23T12:03:32;1.80;;;1.07;;
7525;SDS011;3804;50.860;6.208;2022-11-23T12:06:05;2.43;;;0.90;;
7525;SDS011;3804;50.860;6.208;2022-11-23T12:11:19;3.53;;;1.50;;
7525;SDS011;3804;50.860;6.208;2022-11-23T12:13:46;3.90;;;1.23;;
7525;SDS011;3804;50.860;6.208;2022-11-23T12:37:39;3.97;;;1.37;;
7525;SDS011;3804;50.860;6.208;2022-11-23T12:42:56;3.20;;;1.40;;
7525;SDS011;3804;50.860;6.208;2022-11-23T12:48:17;5.27;;;1.33;;
7525;SDS011;3804;50.860;6.208;2022-11-23T12:58:36;3.47;;;1.43;;
7525;SDS011;3804;50.860;6.208;2022-11-23T13:01:05;3.73;;;1.23;;
7525;SDS011;3804;50.860;6.208;2022-11-23T13:06:41;2.90;;;1.17;;
7525;SDS011;3804;50.860;6.208;2022-11-23T13:17:53;2.03;;;1.30;;
7525;SDS011;3804;50.860;6.208;2022-11-23T13:20:29;4.27;;;1.50;;
7525;SDS011;3804;50.860;6.208;2022-11-23T13:23:01;3.53;;;1.40;;
7525;SDS011;3804;50.860;6.208;2022-11-23T13:25:30;4.03;;;1.67;;
7525;SDS011;3804;50.860;6.208;2022-11-23T13:33:42;6.50;;;1.43;;
7525;SDS011;3804;50.860;6.208;2022-11-23T13:36:09;3.33;;;1.47;;
7525;SDS011;3804;50.860;6.208;2022-11-23T13:38:45;2.43;;;1.20;;
7525;SDS011;3804;50.860;6.208;2022-11-23T13:47:14;2.50;;;1.67;;
7525;SDS011;3804;50.860;6.208;2022-11-23T13:49:41;2.73;;;1.70;;
7525;SDS011;3804;50.860;6.208;2022-11-23T13:54:41;7.07;;;3.70;;
7525;SDS011;3804;50.860;6.208;2022-11-23T13:57:18;4.40;;;2.20;;
7525;SDS011;3804;50.860;6.208;2022-11-23T13:59:45;4.30;;;2.00;;
7525;SDS011;3804;50.860;6.208;2022-11-23T14:04:42;5.07;;;1.73;;
7525;SDS011;3804;50.860;6.208;2022-11-23T14:12:23;3.33;;;1.53;;
7525;SDS011;3804;50.860;6.208;2022-11-23T14:14:54;5.57;;;1.70;;
7525;SDS011;3804;50.860;6.208;2022-11-23T14:20:07;2.87;;;1.63;;
7525;SDS011;3804;50.860;6.208;2022-11-23T14:25:31;4.43;;;2.00;;
7525;SDS011;3804;50.860;6.208;2022-11-23T14:41:27;7.13;;;3.40;;
7525;SDS011;3804;50.860;6.208;2022-11-23T14:43:56;8.83;;;2.70;;
7525;SDS011;3804;50.860;6.208;2022-11-23T14:46:25;6.47;;;2.87;;
7525;SDS011;3804;50.860;6.208;2022-11-23T14:49:01;9.83;;;2.90;;
7525;SDS011;3804;50.860;6.208;2022-11-23T14:51:28;10.13;;;2.30;;
7525;SDS011;3804;50.860;6.208;2022-11-23T14:53:56;5.20;;;2.33;;
7525;SDS011;3804;50.860;6.208;2022-11-23T14:56:28;7.30;;;2.27;;
7525;SDS011;3804;50.860;6.208;2022-11-23T14:58:58;8.97;;;2.40;;
7525;SDS011;3804;50.860;6.208;2022-11-23T15:01:26;8.93;;;2.93;;
7525;SDS011;3804;50.860;6.208;2022-11-23T15:03:54;6.30;;;2.50;;
7525;SDS011;3804;50.860;6.208;2022-11-23T15:06:23;8.43;;;2.70;;
7525;SDS011;3804;50.860;6.208;2022-11-23T15:11:36;13.07;;;3.70;;
7525;SDS011;3804;50.860;6.208;2022-11-23T15:14:03;9.90;;;3.70;;
7525;SDS011;3804;50.860;6.208;2022-11-23T15:16:41;6.43;;;2.60;;
7525;SDS011;3804;50.860;6.208;2022-11-23T15:19:27;10.43;;;3.70;;
7525;SDS011;3804;50.860;6.208;2022-11-23T15:21:54;8.10;;;3.03;;
7525;SDS011;3804;50.860;6.208;2022-11-23T15:24:22;8.20;;;3.27;;
7525;SDS011;3804;50.860;6.208;2022-11-23T15:26:50;6.83;;;2.20;;
7525;SDS011;3804;50.860;6.208;2022-11-23T15:29:36;7.03;;;2.80;;
7525;SDS011;3804;50.860;6.208;2022-11-23T15:32:18;8.73;;;2.53;;
7525;SDS011;3804;50.860;6.208;2022-11-23T15:35:03;10.17;;;2.60;;
7525;SDS011;3804;50.860;6.208;2022-11-23T15:37:33;7.83;;;2.20;;
7525;SDS011;3804;50.860;6.208;2022-11-23T15:40:02;6.13;;;2.53;;
7525;SDS011;3804;50.860;6.208;2022-11-23T15:42:32;10.27;;;3.23;;
7525;SDS011;3804;50.860;6.208;2022-11-23T15:44:58;5.93;;;2.00;;
7525;SDS011;3804;50.860;6.208;2022-11-23T15:47:26;6.03;;;2.10;;
7525;SDS011;3804;50.860;6.208;2022-11-23T15:50:00;7.33;;;2.37;;
7525;SDS011;3804;50.860;6.208;2022-11-23T15:52:28;7.37;;;1.97;;
7525;SDS011;3804;50.860;6.208;2022-11-23T15:55:01;7.03;;;1.93;;
7525;SDS011;3804;50.860;6.208;2022-11-23T15:57:34;1.93;;;1.60;;
7525;SDS011;3804;50.860;6.208;2022-11-23T16:00:03;4.10;;;2.23;;
7525;SDS011;3804;50.860;6.208;2022-11-23T16:02:37;4.23;;;2.43;;
7525;SDS011;3804;50.860;6.208;2022-11-23T16:07:47;3.97;;;1.80;;
7525;SDS011;3804;50.860;6.208;2022-11-23T16:10:19;6.70;;;1.50;;
7525;SDS011;3804;50.860;6.208;2022-11-23T16:12:47;2.87;;;1.30;;
7525;SDS011;3804;50.860;6.208;2022-11-23T16:18:04;3.40;;;1.50;;
7525;SDS011;3804;50.860;6.208;2022-11-23T16:20:31;0.13;;;0.13;;
7525;SDS011;3804;50.860;6.208;2022-11-23T16:22:58;0.20;;;0.20;;
7525;SDS011;3804;50.860;6.208;2022-11-23T16:25:32;0.20;;;0.20;;
7525;SDS011;3804;50.860;6.208;2022-11-23T16:28:03;0.10;;;0.10;;
7525;SDS011;3804;50.860;6.208;2022-11-23T16:30:38;0.10;;;0.10;;
7525;SDS011;3804;50.860;6.208;2022-11-23T16:33:04;0.27;;;0.27;;
7525;SDS011;3804;50.860;6.208;2022-11-23T16:35:31;0.10;;;0.10;;
7525;SDS011;3804;50.860;6.208;2022-11-23T16:37:58;0.20;;;0.20;;
7525;SDS011;3804;50.860;6.208;2022-11-23T16:40:25;0.10;;;0.10;;
7525;SDS011;3804;50.860;6.208;2022-11-23T16:42:52;0.10;;;0.10;;
7525;SDS011;3804;50.860;6.208;2022-11-23T16:45:19;0.30;;;0.30;;
7525;SDS011;3804;50.860;6.208;2022-11-23T16:47:50;0.30;;;0.30;;
7525;SDS011;3804;50.860;6.208;2022-11-23T16:50:17;0.10;;;0.10;;
7525;SDS011;3804;50.860;6.208;2022-11-23T16:52:44;0.10;;;0.10;;
7525;SDS011;3804;50.860;6.208;2022-11-23T16:55:10;0.20;;;0.20;;
7525;SDS011;3804;50.860;6.208;2022-11-23T16:57:37;0.20;;;0.20;;
7525;SDS011;3804;50.860;6.208;2022-11-23T17:00:06;0.10;;;0.10;;
7525;SDS011;3804;50.860;6.208;2022-11-23T17:02:33;0.10;;;0.10;;
7525;SDS011;3804;50.860;6.208;2022-11-23T17:04:59;0.17;;;0.17;;
7525;SDS011;3804;50.860;6.208;2022-11-23T17:07:26;0.20;;;0.20;;
7525;SDS011;3804;50.860;6.208;2022-11-23T17:09:53;0.10;;;0.10;;
7525;SDS011;3804;50.860;6.208;2022-11-23T17:12:20;0.10;;;0.10;;
7525;SDS011;3804;50.860;6.208;2022-11-23T17:14:46;0.10;;;0.10;;
7525;SDS011;3804;50.860;6.208;2022-11-23T17:17:20;0.10;;;0.10;;
7525;SDS011;3804;50.860;6.208;2022-11-23T17:19:48;0.10;;;0.10;;
7525;SDS011;3804;50.860;6.208;2022-11-23T17:22:15;0.20;;;0.20;;
7525;SDS011;3804;50.860;6.208;2022-11-23T17:24:42;0.30;;;0.30;;
7525;SDS011;3804;50.860;6.208;2022-11-23T17:27:18;0.10;;;0.10;;
7525;SDS011;3804;50.860;6.208;2022-11-23T17:29:45;0.13;;;0.13;;
7525;SDS011;3804;50.860;6.208;2022-11-23T17:32:13;0.20;;;0.20;;
7525;SDS011;3804;50.860;6.208;2022-11-23T17:34:39;0.20;;;0.20;;
7525;SDS011;3804;50.860;6.208;2022-11-23T17:37:14;0.10;;;0.10;;
7525;SDS011;3804;50.860;6.208;2022-11-23T17:39:41;0.10;;;0.10;;
7525;SDS011;3804;50.860;6.208;2022-11-23T17:42:09;0.20;;;0.20;;
7525;SDS011;3804;50.860;6.208;2022-11-23T17:44:36;0.20;;;0.20;;
7525;SDS011;3804;50.860;6.208;2022-11-23T17:47:03;0.10;;;0.10;;
7525;SDS011;3804;50.860;6.208;2022-11-23T17:49:30;0.20;;;0.20;;
7525;SDS011;3804;50.860;6.208;2022-11-23T17:51:58;0.20;;;0.20;;
7525;SDS011;3804;50.860;6.208;2022-11-23T17:54:24;0.10;;;0.10;;